• Join FlightAware (Why Join?)
  • Login
  • US Flag 
01:02AM EDT


 

Airport Tracker/Info


-or-


 

Live Flight TrackerFlight Track Log ✈ JBU14 ✈ 28-Oct-2013 ✈ KLGB - KJFK

Flight Track Log - Related Links

Times and Time Zones

All times are in EDT time to prevent confusion due to time zone crossing. See the JBU14 flight status page for this flight to view local times or setup timezone preferences in your user account.

Time Position Orientation Groundspeed Altitude Reporting Facility
EDT Latitude Longitude Course Direction KTS MPH feet Rate Location/Type
12:24AM 33.8230 -118.1580 140° Southeast 166 191 700  Level FlightAware
12:25AM 33.8410 -118.1810 313° West 191 220 2,100 1,920 Climbing FlightAware
12:25AM 33.8442 -118.1993 282° West 212 244 2,400 1,920 Climbing FlightAware ADS-B
12:25AM 33.8428 -118.2058 255° West 206 237 2,900 4,320 Climbing FlightAware ADS-B
12:25AM 33.8303 -118.2210 225° Southwest 205 236 4,000 3,180 Climbing FlightAware ADS-B
12:25AM 33.8227 -118.2238 197° South 207 238 4,300 2,820 Climbing FlightAware ADS-B
12:26AM 33.7967 -118.2297 191° South 214 246 5,900 2,820 Climbing FlightAware ADS-B
12:26AM 33.7784 -118.2339 191° South 221 254 6,600 2,460 Climbing FlightAware ADS-B
12:27AM 33.7547 -118.2396 191° South 229 264 7,500 2,880 Climbing FlightAware ADS-B
12:27AM 33.7230 -118.2429 185° South 234 269 9,100 3,180 Climbing FlightAware ADS-B
12:27AM 33.7130 -118.2377 157° South 244 281 9,600 3,000 Climbing FlightAware ADS-B
12:27AM 33.7021 -118.2240 134° Southeast 251 289 10,200 2,400 Climbing FlightAware ADS-B
12:28AM 33.6945 -118.2043 115° Southeast 270 311 10,800 1,620 Climbing FlightAware ADS-B
12:28AM 33.6788 -118.1566 112° Southeast 314 361 11,500 1,080 Climbing FlightAware ADS-B
12:29AM 33.6638 -118.1059 110° East 361 415 11,900 900 Climbing FlightAware ADS-B
12:29AM 33.6623 -118.0868 95° East 371 427 12,100 1,560 Climbing FlightAware ADS-B
12:29AM 33.6720 -118.0437 75° East 375 432 12,700 1,560 Climbing FlightAware ADS-B
12:29AM 33.6773 -118.0338 57° Northeast 374 430 12,900 1,320 Climbing FlightAware ADS-B
12:30AM 33.6956 -118.0126 44° Northeast 369 425 13,200 1,860 Climbing FlightAware ADS-B
12:30AM 33.7106 -118.0031 28° Northeast 363 418 13,600 2,460 Climbing FlightAware ADS-B
12:30AM 33.7588 -117.9857 17° North 365 420 14,800 2,460 Climbing FlightAware ADS-B
12:31AM 33.8078 -117.9682 17° North 368 423 16,100 2,340 Climbing FlightAware ADS-B
12:31AM 33.8555 -117.9510 17° North 377 434 17,200 1,860 Climbing FlightAware ADS-B
12:32AM 33.9115 -117.9304 17° North 399 459 18,000 1,740 Climbing FlightAware ADS-B
12:32AM 33.9396 -117.9131 27° Northeast 423 487 18,600 1,860 Climbing FlightAware ADS-B
12:33AM 33.9857 -117.8728 36° Northeast 441 507 19,500 1,260 Climbing FlightAware ADS-B
12:33AM 34.0370 -117.8253 37° Northeast 467 537 19,900 600 Climbing FlightAware ADS-B
12:34AM 34.1077 -117.7490 42° Northeast 505 581 20,200 780 Climbing FlightAware ADS-B
12:34AM 34.1154 -117.7392 46° Northeast 508 585 20,500 1,800 Climbing FlightAware ADS-B
12:34AM 34.1676 -117.6687 48° Northeast 515 593 21,400 1,500 Climbing FlightAware ADS-B
12:35AM 34.2493 -117.5595 48° Northeast 522 601 22,600 1,440 Climbing FlightAware ADS-B
12:36AM 34.3145 -117.4713 48° Northeast 535 616 23,600 1,380 Climbing FlightAware ADS-B
12:37AM 34.3774 -117.3854 48° Northeast 539 620 24,500 1,260 Climbing FlightAware ADS-B
12:37AM 34.4247 -117.3205 49° Northeast 542 624 25,100 1,080 Climbing FlightAware ADS-B
12:38AM 34.4948 -117.2243 49° Northeast 548 631 25,800 960 Climbing FlightAware ADS-B
12:39AM 34.5757 -117.1134 48° Northeast 556 640 26,600 1,140 Climbing FlightAware ADS-B
12:39AM 34.6701 -116.9836 48° Northeast 555 639 27,800 1,380 Climbing FlightAware ADS-B
12:40AM 34.7221 -116.9117 49° Northeast 555 639 28,600 1,380 Climbing FlightAware ADS-B
12:41AM 34.7847 -116.8251 49° Northeast 549 632 29,400 1,380 Climbing FlightAware ADS-B
12:41AM 34.8350 -116.7560 48° Northeast 552 635 30,100 1,500 Climbing FlightAware
12:41AM 34.8693 -116.7077 49° Northeast 547 629 30,700 1,680 Climbing FlightAware ADS-B
12:42AM 34.9402 -116.6094 49° Northeast 542 624 31,900 1,260 Climbing FlightAware ADS-B
12:43AM 35.0450 -116.4730 47° Northeast 548 631 32,900 840 Climbing FlightAware
12:44AM 35.1240 -116.3770 45° Northeast 557 641 33,400 660 Climbing FlightAware
12:44AM 35.1720 -116.3160 46° Northeast 562 647 33,700 1,320 Climbing FlightAware
12:45AM 35.2790 -116.1810 46° Northeast 551 634 35,300 900 Climbing FlightAware
12:46AM 35.3680 -116.0700 45° Northeast 560 644 35,400 600 Climbing FlightAware
12:47AM 35.4460 -115.9720 46° Northeast 550 633 36,300 1,140 Climbing FlightAware
12:47AM 35.4960 -115.9080 46° Northeast 548 631 36,800 480 Climbing FlightAware
12:48AM 35.5920 -115.7860 46° Northeast 531 611 37,000 60 Climbing FlightAware
12:49AM 35.6810 -115.6730 46° Northeast 528 608 37,000  Level FlightAware
12:50AM 35.7290 -115.6120 46° Northeast 536 617 37,000  Level FlightAware
12:50AM 35.8180 -115.4970 46° Northeast 546 628 37,000  Level FlightAware
12:51AM 35.9060 -115.3840 46° Northeast 542 624 37,100  Climbing FlightAware
12:52AM 35.9940 -115.2710 46° Northeast 538 619 37,000 -60 Descending FlightAware
12:53AM 36.0780 -115.1620 46° Northeast 542 624 37,000  Level FlightAware
12:54AM 36.1620 -115.0550 46° Northeast 541 623 37,000 -120 Level FlightAware
12:54AM 36.2100 -114.9940 46° Northeast 542 624 36,900  Descending FlightAware
12:55AM 36.3040 -114.8760 45° Northeast 539 620 37,000  Climbing FlightAware
12:56AM 36.3940 -114.7610 46° Northeast 539 620 37,000  Level FlightAware
12:57AM 36.4810 -114.6460 47° Northeast 542 624 37,000 -120 Level FlightAware
12:58AM 36.5550 -114.5490 46° Northeast 544 626 36,900  Descending FlightAware
12:58AM 36.6330 -114.4470 46° Northeast 549 632 37,000 60 Climbing FlightAware
12:59AM 36.7240 -114.3250 47° Northeast 548 631 37,000 60 Level FlightAware
01:00AM 36.7900 -114.2140 53° Northeast 545 627 37,100  Climbing FlightAware
01:00AM 36.8220 -114.1470 59° Northeast 543 625 37,000 -180 Descending FlightAware
01:01AM 36.8930 -114.0020 58° Northeast 544 626 36,900 -120 Descending FlightAware
01:02AM 36.9330 -113.9200 59° Northeast 546 628 36,900 60 Level FlightAware
01:03AM 36.9990 -113.7820 59° Northeast 547 629 37,000  Climbing FlightAware
01:04AM 37.0770 -113.6180 59° Northeast 549 632 37,000  Level FlightAware
01:04AM 37.1420 -113.4820 59° Northeast 550 633 37,000  Level FlightAware
01:05AM 37.2150 -113.3270 59° Northeast 549 632 37,000  Level FlightAware
01:06AM 37.2650 -113.2200 60° Northeast 549 632 37,000  Level FlightAware
01:07AM 37.3360 -113.0680 60° Northeast 550 633 37,000  Level FlightAware
01:07AM 37.3690 -112.9990 59° Northeast 550 633 37,000  Level FlightAware
01:08AM 37.4470 -112.8300 60° Northeast 554 638 37,000  Level FlightAware
01:09AM 37.5110 -112.6910 60° Northeast 553 636 37,000  Level FlightAware
01:10AM 37.5660 -112.5720 60° Northeast 555 639 37,000  Level FlightAware
01:10AM 37.6120 -112.4710 60° Northeast 556 640 37,000  Level FlightAware
01:11AM 37.6830 -112.2950 63° Northeast 552 635 37,000  Level FlightAware
01:12AM 37.7260 -112.1370 71° East 552 635 37,000  Level FlightAware
01:13AM 37.7600 -112.0120 71° East 552 635 37,000  Level FlightAware
01:14AM 37.8090 -111.8200 72° East 559 643 37,000  Level FlightAware
01:15AM 37.8363 -111.7164 72° East 561 646 37,000  Level FlightAware ADS-B (KMTJ)
01:15AM 37.8757 -111.5669 71° East 564 649 37,000  Level FlightAware ADS-B (KMTJ)
01:16AM 37.9025 -111.4653 72° East 566 651 37,000  Level FlightAware ADS-B (KMTJ)
01:16AM 37.9259 -111.3770 71° East 557 641 37,000  Level FlightAware ADS-B (KMTJ)
01:17AM 37.9669 -111.2199 72° East 548 631 37,000 -420 Level FlightAware ADS-B (KMTJ)
01:18AM 37.9989 -111.0957 72° East 548 631 36,400 -1,380 Descending FlightAware ADS-B (KMTJ)
01:19AM 38.0323 -110.9660 72° East 559 643 35,100 -1,020 Descending FlightAware ADS-B (KMTJ)
01:19AM 38.0655 -110.8370 72° East 565 650 35,000 -120 Descending FlightAware ADS-B (KMTJ)
01:20AM 38.0944 -110.7243 72° East 558 642 35,000  Level FlightAware ADS-B (KMTJ)
01:20AM 38.1188 -110.6287 72° East 552 635 35,000  Level FlightAware ADS-B (KMTJ)
01:21AM 38.1423 -110.5354 72° East 555 639 35,000  Level FlightAware ADS-B (KMTJ)
01:21AM 38.1658 -110.4420 72° East 558 642 35,000  Level FlightAware ADS-B (KMTJ)
01:22AM 38.1893 -110.3480 72° East 557 641 35,000 60 Level FlightAware ADS-B (KMTJ)
01:22AM 38.2126 -110.2554 72° East 548 631 35,100 -120 Climbing FlightAware ADS-B (KMTJ)
01:23AM 38.2359 -110.1632 72° East 552 635 34,900 -240 Descending FlightAware ADS-B (KMTJ)
01:23AM 38.2584 -110.0728 72° East 557 641 34,900 60 Level FlightAware ADS-B (KMTJ)
01:24AM 38.2826 -109.9751 72° East 561 646 35,000 180 Climbing FlightAware ADS-B (KMTJ)
01:24AM 38.3058 -109.8803 73° East 558 642 35,100  Climbing FlightAware ADS-B (KMTJ)
01:25AM 38.3296 -109.7837 73° East 552 635 35,000 -120 Descending FlightAware ADS-B (KMTJ)
01:25AM 38.3528 -109.6895 73° East 547 629 35,000  Level FlightAware ADS-B (KMTJ)
01:26AM 38.3739 -109.6034 73° East 544 626 35,000 -120 Level FlightAware ADS-B (KMTJ)
01:27AM 38.4049 -109.4763 73° East 544 626 34,900  Descending FlightAware ADS-B (KMTJ)
01:27AM 38.4256 -109.3906 73° East 546 628 35,000 60 Climbing FlightAware ADS-B (KMTJ)
01:28AM 38.4493 -109.2919 73° East 550 633 35,000  Level FlightAware ADS-B (KMTJ)
01:28AM 38.4691 -109.2091 73° East 551 634 35,000  Level FlightAware ADS-B (KMTJ)
01:29AM 38.4943 -109.1041 73° East 549 632 35,000  Level FlightAware ADS-B (KMTJ)
01:29AM 38.5276 -108.9625 73° East 554 638 35,000  Level FlightAware ADS-B (KMTJ)
01:30AM 38.5527 -108.8574 73° East 554 638 35,000  Level FlightAware ADS-B (KMTJ)
01:31AM 38.5840 -108.7250 73° East 554 638 35,000  Level FlightAware ADS-B (KMTJ)
01:31AM 38.6101 -108.6136 73° East 555 639 35,000  Level FlightAware ADS-B (KMTJ)
01:32AM 38.6331 -108.5144 73° East 554 638 35,000  Level FlightAware ADS-B (KMTJ)
01:32AM 38.6578 -108.4072 73° East 555 639 35,000  Level FlightAware ADS-B (KMTJ)
01:33AM 38.6809 -108.3083 73° East 559 643 35,000 60 Level FlightAware ADS-B (KMTJ)
01:33AM 38.7019 -108.2165 74° East 560 644 35,100 60 Climbing FlightAware ADS-B (KMTJ)
01:34AM 38.7277 -108.1030 74° East 558 642 35,100 -120 Level FlightAware ADS-B (KMTJ)
01:34AM 38.7464 -108.0219 74° East 555 639 35,000 -120 Descending FlightAware ADS-B (KMTJ)
01:35AM 38.7704 -107.9163 74° East 551 634 35,000 -120 Level FlightAware ADS-B (KANK)
01:36AM 38.7980 -107.7944 74° East 551 634 34,900  Descending FlightAware ADS-B (KANK)
01:36AM 38.8241 -107.6786 74° East 554 638 35,000 60 Climbing FlightAware ADS-B (KMTJ)
01:37AM 38.8465 -107.5781 74° East 551 634 35,000  Level FlightAware ADS-B (KMTJ)
01:37AM 38.8698 -107.4736 74° East 551 634 35,000  Level FlightAware ADS-B (KMTJ)
01:38AM 38.8906 -107.3797 74° East 551 634 35,000  Level FlightAware ADS-B (KMTJ)
01:38AM 38.9102 -107.2907 74° East 549 632 35,000  Level FlightAware ADS-B (KMTJ)
01:39AM 38.9310 -107.1961 74° East 549 632 35,000  Level FlightAware ADS-B (KMTJ)
01:39AM 38.9525 -107.0980 74° East 548 631 35,000 -120 Level FlightAware ADS-B (KMTJ)
01:40AM 38.9739 -107.0001 74° East 550 633 34,900  Descending FlightAware ADS-B (KMTJ)
01:40AM 38.9942 -106.9060 74° East 549 632 35,000  Climbing FlightAware ADS-B (KMTJ)
01:41AM 39.0152 -106.8083 75° East 550 633 34,900 -120 Descending FlightAware ADS-B (KMTJ)
01:41AM 39.0352 -106.7151 75° East 553 636 34,900 60 Level FlightAware ADS-B (KMTJ)
01:42AM 39.0566 -106.6155 75° East 556 640 35,000 60 Climbing FlightAware ADS-B (KMTJ)
01:42AM 39.0774 -106.5190 75° East 560 644 35,000 60 Level FlightAware ADS-B (KMTJ)
01:43AM 39.0976 -106.4234 75° East 566 651 35,100 60 Climbing FlightAware ADS-B (KMTJ)
01:43AM 39.1209 -106.3127 75° East 569 655 35,100 -120 Level FlightAware ADS-B (KANK)
01:44AM 39.1409 -106.2176 75° East 564 649 35,000 -120 Descending FlightAware ADS-B (KANK)
01:45AM 39.1698 -106.0799 75° East 554 638 35,000  Level FlightAware ADS-B (KANK)
01:45AM 39.1891 -105.9875 75° East 537 618 35,000  Level FlightAware ADS-B (KANK)
01:46AM 39.2173 -105.8518 75° East 531 611 35,000  Level FlightAware ADS-B (KANK)
01:46AM 39.2361 -105.7601 75° East 534 615 35,000  Level FlightAware ADS-B (KANK)
01:47AM 39.2639 -105.6233 75° East 547 629 35,000  Level FlightAware ADS-B (KANK)
01:48AM 39.2829 -105.5300 75° East 547 629 35,000  Level FlightAware ADS-B (KANK)
01:48AM 39.3022 -105.4341 75° East 543 625 35,000  Level FlightAware ADS-B (KANK)
01:49AM 39.3197 -105.3478 75° East 540 621 35,000  Level FlightAware ADS-B (KANK)
01:49AM 39.3387 -105.2535 75° East 544 626 35,000  Level FlightAware ADS-B (KANK)
01:50AM 39.3616 -105.1385 75° East 549 632 35,000  Level FlightAware ADS-B (KANK)
01:50AM 39.3808 -105.0423 76° East 552 635 35,000 60 Level FlightAware ADS-B (KANK)
01:51AM 39.4074 -104.9068 76° East 556 640 35,100  Climbing FlightAware ADS-B (KANK)
01:51AM 39.4265 -104.8096 76° East 557 641 35,000  Descending FlightAware ADS-B (KANK)
01:52AM 39.4492 -104.6942 76° East 551 634 35,100  Climbing FlightAware ADS-B (KEIK)
01:53AM 39.4659 -104.6084 76° East 536 617 35,000 -120 Descending FlightAware ADS-B (KANK)
01:53AM 39.4952 -104.4567 76° East 537 618 35,000  Level FlightAware ADS-B (KANK)
01:54AM 39.5134 -104.3618 76° East 544 626 35,000  Level FlightAware ADS-B (KANK)
01:55AM 39.5411 -104.2171 76° East 545 627 35,000  Level FlightAware ADS-B (KANK)
01:55AM 39.5652 -104.0895 76° East 547 629 35,000 -120 Level FlightAware ADS-B (KANK)
01:56AM 39.5850 -103.9850 76° East 552 635 34,900  Descending FlightAware
01:56AM 39.5990 -103.9080 77° East 554 638 35,000 120 Climbing FlightAware
01:57AM 39.6130 -103.8348 76° East 555 639 35,000  Level FlightAware ADS-B (KEIK)
01:57AM 39.6479 -103.6470 76° East 556 640 35,000  Level FlightAware ADS-B (KEIK)
01:58AM 39.6806 -103.4687 77° East 555 639 35,000  Level FlightAware ADS-B (KEIK)
01:59AM 39.7123 -103.2952 77° East 556 640 35,000  Level FlightAware ADS-B (KEIK)
02:00AM 39.7433 -103.1237 77° East 555 639 35,000  Level FlightAware ADS-B (KEIK)
02:01AM 39.7747 -102.9480 77° East 552 635 35,000  Level FlightAware ADS-B (KEIK)
02:02AM 39.8076 -102.7621 77° East 549 632 35,000  Level FlightAware ADS-B (KEIK)
02:03AM 39.8345 -102.6091 77° East 549 632 35,000  Level FlightAware ADS-B (KEIK)
02:04AM 39.8698 -102.4055 77° East 550 633 35,000  Level FlightAware ADS-B (KEIK)
02:05AM 39.8986 -102.2385 77° East 550 633 35,000  Level FlightAware ADS-B (KEIK)
02:06AM 39.9311 -102.0483 77° East 550 633 35,000  Level FlightAware ADS-B (KEIK)
02:07AM 39.9617 -101.8662 78° East 549 632 35,000  Level FlightAware ADS-B (KEIK)
02:08AM 39.9897 -101.6995 78° East 547 629 35,000  Level FlightAware ADS-B (KEIK)
02:09AM 40.0212 -101.5084 78° East 546 628 35,000  Level FlightAware ADS-B (KEIK)
02:09AM 40.0486 -101.3413 78° East 547 629 35,000  Level FlightAware ADS-B (KEIK)
02:10AM 40.0780 -101.1597 78° East 548 631 35,000  Level FlightAware ADS-B (KEIK)
02:11AM 40.1040 -100.9976 78° East 548 631 35,000  Level FlightAware ADS-B (KEIK)
02:12AM 40.1333 -100.8120 78° East 547 629 35,000  Level FlightAware ADS-B (KEIK)
02:13AM 40.1521 -100.6924 78° East 546 628 35,000  Level FlightAware ADS-B (KEIK)
02:14AM 40.1630 -100.7160 301° West 547 629 35,000  Level FlightAware
02:14AM 40.1800 -100.6170 77° East 547 629 35,000  Level FlightAware
02:15AM 40.2090 -100.4530 77° East 547 629 35,000  Level FlightAware
02:16AM 40.2210 -100.3870 77° East 547 629 35,000  Level FlightAware
02:17AM 40.2500 -100.2220 77° East 547 629 35,000  Level FlightAware
02:17AM 40.2670 -100.1230 77° East 547 629 35,000  Level FlightAware
02:18AM 40.2790 -100.0570 77° East 547 629 35,000 960 Level FlightAware
02:19AM 40.3383 -99.4605 82° East 548 631 37,000 720 Climbing FlightAware ADS-B
02:20AM 40.3522 -99.3641 79° East 549 632 37,000  Level FlightAware ADS-B
02:22AM 40.4228 -98.8671 79° East 550 633 37,000  Level FlightAware ADS-B
02:23AM 40.4368 -98.7665 80° East 550 633 37,000  Level FlightAware ADS-B
02:24AM 40.4377 -98.7599 80° East 550 633 37,000  Level FlightAware ADS-B
02:25AM 40.5060 -98.2610 80° East 550 633 37,000  Level FlightAware
02:26AM 40.5213 -98.1464 80° East 551 634 37,000  Level FlightAware ADS-B
02:26AM 40.5370 -98.0270 80° East 552 635 37,000  Level FlightAware
02:27AM 40.5560 -97.8810 80° East 552 635 37,000  Level FlightAware
02:28AM 40.5890 -97.6300 80° East 552 635 37,000  Level FlightAware
02:29AM 40.6100 -97.4600 81° East 552 635 37,000  Level FlightAware
02:30AM 40.6380 -97.2420 80° East 553 636 37,000  Level FlightAware
02:31AM 40.6460 -97.1760 81° East 552 635 37,000  Level FlightAware
02:31AM 40.6600 -97.0670 80° East 553 636 37,000  Level FlightAware
02:32AM 40.6730 -96.9570 81° East 552 635 37,000  Level FlightAware
02:33AM 40.6920 -96.8030 81° East 549 632 37,000  Level FlightAware
02:34AM 40.7150 -96.6140 81° East 545 627 37,000  Level FlightAware
02:34AM 40.7240 -96.5320 82° East 545 627 37,000  Level FlightAware
02:34AM 40.7370 -96.4280 81° East 545 627 37,000  Level FlightAware
02:35AM 40.7560 -96.2610 81° East 545 627 37,000  Level FlightAware
02:36AM 40.7680 -96.1570 81° East 546 628 37,000  Level FlightAware
02:36AM 40.7810 -96.0450 81° East 546 628 37,000  Level FlightAware
02:37AM 40.7930 -95.9380 82° East 547 629 37,000  Level FlightAware
02:38AM 40.8080 -95.8090 81° East 546 628 37,000  Level FlightAware
02:38AM 40.8210 -95.6880 82° East 546 628 37,000  Level FlightAware
02:39AM 40.8350 -95.5630 82° East 546 628 37,000  Level FlightAware
02:39AM 40.8450 -95.4720 82° East 546 628 37,000  Level FlightAware
02:40AM 40.8570 -95.3560 82° East 547 629 37,000  Level FlightAware
02:40AM 40.8690 -95.2480 82° East 548 631 37,000  Level FlightAware
02:42AM 40.8920 -95.0320 82° East 546 628 37,000  Level FlightAware
02:43AM 40.9140 -94.8220 82° East 543 625 37,000  Level FlightAware
02:44AM 40.9320 -94.6430 82° East 542 624 37,000  Level FlightAware
02:44AM 40.9440 -94.5230 82° East 541 623 37,000  Level FlightAware
02:45AM 40.9540 -94.4240 82° East 543 625 37,000  Level FlightAware
02:45AM 40.9635 -94.3263 83° East 547 629 37,000  Level FlightAware ADS-B
02:46AM 40.9740 -94.2160 83° East 545 627 37,000  Level FlightAware
02:46AM 40.9860 -94.1000 82° East 544 626 37,000 60 Level FlightAware
02:47AM 40.9960 -93.9930 83° East 542 624 37,100  Climbing FlightAware
02:48AM 41.0102 -93.8412 83° East 541 623 37,000 -120 Descending FlightAware ADS-B
02:48AM 41.0260 -93.6730 83° East 540 621 37,000  Level FlightAware
02:49AM 41.0371 -93.5526 83° East 539 620 37,000 60 Level FlightAware ADS-B
02:50AM 41.0443 -93.4731 83° East 539 620 37,100 660 Climbing FlightAware ADS-B
02:50AM 41.0599 -93.3002 83° East 541 623 37,900 1,020 Climbing FlightAware ADS-B
02:51AM 41.0705 -93.1793 83° East 543 625 38,300 660 Climbing FlightAware ADS-B
02:51AM 41.0800 -93.0770 83° East 541 623 38,700 300 Climbing FlightAware
02:53AM 41.1038 -92.7949 84° East 545 627 39,000 120 Climbing FlightAware ADS-B
02:54AM 41.1170 -92.6390 84° East 540 621 39,000  Level FlightAware
02:54AM 41.1227 -92.5703 84° East 537 618 39,000  Level FlightAware ADS-B
02:55AM 41.1404 -92.3556 84° East 531 611 39,000 -60 Level FlightAware ADS-B
02:56AM 41.1530 -92.2030 84° East 527 606 38,900  Descending FlightAware
02:57AM 41.1642 -92.0555 84° East 525 604 39,000 60 Climbing FlightAware ADS-B
02:58AM 41.1769 -91.8917 84° East 518 596 39,000  Level FlightAware ADS-B
02:58AM 41.1820 -91.8260 84° East 515 593 39,000  Level FlightAware ADS-B
02:59AM 41.1950 -91.6580 84° East 512 589 39,000  Level FlightAware
02:59AM 41.2019 -91.5610 85° East 512 589 39,000  Level FlightAware ADS-B
03:00AM 41.2100 -91.4550 84° East 512 589 39,000  Level FlightAware
03:00AM 41.2180 -91.3400 85° East 513 590 39,000  Level FlightAware
03:01AM 41.2260 -91.2310 84° East 513 590 39,000  Level FlightAware
03:02AM 41.2363 -91.0806 85° East 516 594 39,000  Level FlightAware ADS-B
03:03AM 41.2460 -90.9390 85° East 523 602 39,000  Level FlightAware
03:03AM 41.2530 -90.8310 85° East 526 605 39,000 60 Level FlightAware
03:04AM 41.2620 -90.7090 84° East 526 605 39,100 60 Climbing FlightAware
03:04AM 41.2690 -90.5940 85° East 525 604 39,100 -120 Level FlightAware
03:05AM 41.2800 -90.4300 85° East 523 602 39,000 -120 Descending FlightAware
03:06AM 41.2850 -90.3500 85° East 522 601 39,000  Level FlightAware
03:06AM 41.2930 -90.2270 85° East 522 601 39,000  Level FlightAware
03:07AM 41.3000 -90.1020 86° East 523 602 39,000  Level FlightAware
03:07AM 41.3060 -90.0050 85° East 524 603 39,000  Level FlightAware
03:08AM 41.3130 -89.8900 85° East 524 603 39,000  Level FlightAware
03:09AM 41.3200 -89.7670 86° East 525 604 39,000  Level FlightAware
03:10AM 41.3310 -89.5780 86° East 526 605 39,000  Level FlightAware
03:10AM 41.3370 -89.4720 86° East 526 605 39,000  Level FlightAware
03:11AM 41.3480 -89.2700 86° East 527 606 39,000  Level FlightAware
03:12AM 41.3550 -89.1470 86° East 528 608 39,000  Level FlightAware
03:13AM 41.3610 -89.0170 86° East 529 609 39,000  Level FlightAware
03:13AM 41.3660 -88.9150 86° East 529 609 39,000  Level FlightAware
03:14AM 41.3730 -88.7930 86° East 529 609 39,000  Level FlightAware
03:15AM 41.3820 -88.5980 86° East 527 606 39,000  Level FlightAware
03:16AM 41.3910 -88.4030 86° East 527 606 39,000  Level FlightAware
03:17AM 41.3990 -88.2300 86° East 529 609 39,000  Level FlightAware
03:17AM 41.4060 -88.0780 86° East 531 611 39,000  Level FlightAware
03:18AM 41.4100 -87.9850 87° East 532 612 39,000  Level FlightAware
03:18AM 41.4130 -87.8980 87° East 533 613 39,000  Level FlightAware
03:19AM 41.4180 -87.7910 86° East 532 612 39,000  Level FlightAware
03:23AM 41.4460 -87.0500 87° East 529 609 39,000  Level FlightAware
03:24AM 41.4520 -86.8610 88° East 530 610 39,000  Level FlightAware
03:24AM 41.4560 -86.7420 87° East 530 610 39,000  Level FlightAware
03:25AM 41.4590 -86.6250 88° East 530 610 39,000  Level FlightAware
03:25AM 41.4630 -86.5010 87° East 529 609 39,000  Level FlightAware
03:26AM 41.4660 -86.3860 88° East 528 608 39,000  Level FlightAware
03:27AM 41.4700 -86.2740 87° East 528 608 39,000  Level FlightAware
03:27AM 41.4720 -86.1780 88° East 527 606 39,000  Level FlightAware
03:28AM 41.4750 -86.0730 88° East 527 606 39,000  Level FlightAware
03:28AM 41.4780 -85.9330 88° East 527 606 39,000  Level FlightAware
03:29AM 41.4810 -85.8160 88° East 527 606 39,000  Level FlightAware
03:30AM 41.4850 -85.6330 88° East 527 606 39,000  Level FlightAware
03:31AM 41.4880 -85.5230 88° East 526 605 39,000  Level FlightAware
03:31AM 41.4900 -85.4180 89° East 526 605 39,000  Level FlightAware
03:32AM 41.4920 -85.3160 88° East 526 605 39,000  Level FlightAware
03:33AM 41.4950 -85.1390 89° East 526 605 39,000  Level FlightAware
03:33AM 41.4970 -85.0280 89° East 525 604 39,000  Level FlightAware
03:34AM 41.5000 -84.8180 89° East 525 604 39,000  Level FlightAware
03:35AM 41.5020 -84.7060 89° East 526 605 39,000  Level FlightAware
03:36AM 41.5040 -84.5240 89° East 524 603 39,000  Level FlightAware
03:37AM 41.5070 -84.3230 89° East 524 603 39,000  Level FlightAware
03:37AM 41.5080 -84.1910 89° East 524 603 39,000  Level FlightAware
03:39AM 41.5100 -83.9730 89° East 525 604 39,000  Level FlightAware
03:39AM 41.5110 -83.8570 89° East 526 605 39,000  Level FlightAware
03:40AM 41.5110 -83.7760 90° East 526 605 39,000  Level FlightAware
03:40AM 41.5120 -83.6650 89° East 527 606 39,000  Level FlightAware
03:41AM 41.5120 -83.5250 90° East 526 605 39,000  Level FlightAware
03:41AM 41.5120 -83.4550 90° East 526 605 39,000  Level FlightAware
03:42AM 41.5130 -83.3410 89° East 525 604 39,000  Level FlightAware
03:43AM 41.5130 -83.2010 90° East 525 604 39,000  Level FlightAware
03:43AM 41.5130 -83.1100 90° East 525 604 39,000  Level FlightAware
03:44AM 41.5130 -82.9860 90° East 525 604 39,000  Level FlightAware
03:45AM 41.5120 -82.7760 90° East 525 604 39,000  Level FlightAware
03:45AM 41.5120 -82.6720 90° East 524 603 39,000  Level FlightAware
03:46AM 41.5120 -82.5750 90° East 524 603 39,000  Level FlightAware
03:46AM 41.5110 -82.4520 91° East 523 602 39,000  Level FlightAware
03:47AM 41.5100 -82.3230 91° East 524 603 39,000  Level FlightAware
03:48AM 41.5090 -82.1270 90° East 524 603 39,000  Level FlightAware
03:49AM 41.5080 -82.0130 91° East 523 602 39,000  Level FlightAware
03:49AM 41.5060 -81.8790 91° East 522 601 39,000  Level FlightAware
03:50AM 41.5050 -81.7620 91° East 521 600 39,000  Level FlightAware
03:51AM 41.5020 -81.5560 91° East 519 597 39,000  Level FlightAware
03:52AM 41.5010 -81.4410 91° East 518 596 39,000  Level FlightAware
03:52AM 41.4990 -81.3260 91° East 518 596 39,000  Level FlightAware
03:53AM 41.4970 -81.1780 91° East 517 595 39,000  Level FlightAware
03:53AM 41.4950 -81.0850 92° East 517 595 39,000  Level FlightAware
03:54AM 41.4930 -80.9570 91° East 516 594 39,000  Level FlightAware
03:55AM 41.4910 -80.8700 92° East 516 594 39,000  Level FlightAware
03:56AM 41.4860 -80.6490 92° East 514 592 39,000  Level FlightAware
03:56AM 41.4840 -80.5510 92° East 513 590 39,000  Level FlightAware
03:57AM 41.4820 -80.4330 91° East 512 589 39,000  Level FlightAware
03:58AM 41.4770 -80.2450 92° East 511 588 39,000  Level FlightAware
03:58AM 41.4750 -80.1510 92° East 511 588 39,000  Level FlightAware
03:59AM 41.4720 -80.0640 93° East 510 587 39,000  Level FlightAware
04:00AM 41.4680 -79.9000 92° East 510 587 39,000  Level FlightAware
04:00AM 41.4650 -79.8070 92° East 510 587 39,000  Level FlightAware
04:01AM 41.4610 -79.6550 92° East 510 587 39,000  Level FlightAware
04:02AM 41.4560 -79.4850 92° East 508 585 39,000  Level FlightAware
04:03AM 41.4510 -79.3520 93° East 505 581 39,000  Level FlightAware
04:03AM 41.4470 -79.2180 92° East 504 580 39,000  Level FlightAware
04:04AM 41.4410 -79.0440 93° East 505 581 39,000  Level FlightAware
04:05AM 41.4370 -78.9420 93° East 506 582 39,000  Level FlightAware
04:06AM 41.4300 -78.7468 93° East 506 582 39,000  Level FlightAware ADS-B (KWWD)
04:06AM 41.4265 -78.6531 93° East 505 581 39,000  Level FlightAware ADS-B (KWWD)
04:07AM 41.4229 -78.5616 93° East 503 579 39,000  Level FlightAware ADS-B (KWWD)
04:08AM 41.4179 -78.4430 93° East 500 575 39,000  Level FlightAware ADS-B (KWWD)
04:08AM 41.4140 -78.3520 93° East 500 575 39,000  Level FlightAware
04:09AM 41.4100 -78.2410 93° East 500 575 39,000  Level FlightAware
04:09AM 41.4067 -78.1669 93° East 501 577 39,000  Level FlightAware ADS-B (KWWD)
04:10AM 41.3957 -77.9244 93° East 503 579 39,000  Level FlightAware ADS-B (KWWD)
04:11AM 41.3909 -77.8222 94° East 503 579 39,000  Level FlightAware ADS-B (KWWD)
04:11AM 41.3867 -77.7307 94° East 502 578 39,000  Level FlightAware ADS-B (KWWD)
04:12AM 41.3823 -77.6372 94° East 501 577 39,000  Level FlightAware ADS-B (KWWD)
04:12AM 41.3778 -77.5416 94° East 500 575 39,000  Level FlightAware ADS-B (KWWD)
04:13AM 41.3732 -77.4466 94° East 499 574 39,000  Level FlightAware ADS-B
04:13AM 41.3682 -77.3483 94° East 500 575 39,000  Level FlightAware ADS-B
04:14AM 41.3621 -77.2257 94° East 503 579 39,000  Level FlightAware ADS-B
04:15AM 41.3558 -77.1031 94° East 505 581 39,000  Level FlightAware ADS-B
04:15AM 41.3495 -76.9816 94° East 505 581 39,000  Level FlightAware ADS-B
04:16AM 41.3380 -76.8585 97° East 507 583 39,000  Level FlightAware ADS-B
04:17AM 41.3262 -76.7660 100° East 506 582 39,000  Level FlightAware ADS-B
04:17AM 41.3156 -76.6784 99° East 505 581 39,000  Level FlightAware ADS-B
04:18AM 41.3048 -76.5848 99° East 506 582 39,000 -120 Level FlightAware ADS-B (KWWD)
04:18AM 41.2978 -76.5245 99° East 507 583 38,900 -600 Descending FlightAware ADS-B
04:18AM 41.2882 -76.4420 99° East 506 582 38,500 -1,140 Descending FlightAware ADS-B
04:19AM 41.2727 -76.3090 99° East 506 582 37,600 -1,740 Descending FlightAware ADS-B (KWWD)
04:20AM 41.2586 -76.1917 99° East 500 575 36,300 -2,340 Descending FlightAware ADS-B (KWWD)
04:20AM 41.2596 -76.2007 279° West 500 575 35,900 -2,160 Descending FlightAware ADS-B
04:20AM 41.2435 -76.0656 99° East 494 568 34,800 -1,920 Descending FlightAware ADS-B (KWWD)
04:21AM 41.2365 -76.0068 99° East 492 566 34,100 -2,640 Descending FlightAware ADS-B
04:21AM 41.2257 -75.9167 99° East 497 572 32,600 -3,120 Descending FlightAware ADS-B (KWWD)
04:22AM 41.2108 -75.7945 99° East 504 580 30,500 -3,180 Descending FlightAware ADS-B (KWWD)
04:22AM 41.1994 -75.7022 99° East 506 582 28,900 -3,000 Descending FlightAware ADS-B (KWWD)
04:23AM 41.1882 -75.6115 99° East 502 578 27,500 -2,820 Descending FlightAware ADS-B (KWWD)
04:24AM 41.1770 -75.5216 99° East 496 571 25,100 -2,100 Descending FlightAware ADS-B
04:25AM 41.1208 -75.2375 105° East 457 526 23,000 -1,440 Descending FlightAware ADS-B (KWWD)
04:25AM 41.1100 -75.2055 114° Southeast 458 527 23,000  Level FlightAware ADS-B (KWWD)
04:26AM 41.0956 -75.1627 114° Southeast 463 533 23,000  Level FlightAware ADS-B
04:26AM 41.0751 -75.1014 114° Southeast 463 533 23,000  Level FlightAware ADS-B (KWWD)
04:27AM 41.0428 -75.0055 114° Southeast 461 531 23,000  Level FlightAware ADS-B (KWWD)
04:27AM 41.0346 -74.9817 114° Southeast 464 534 23,000  Level FlightAware ADS-B
04:27AM 41.0346 -74.9817 114° Southeast 465 535 23,000  Level FlightAware ADS-B
04:27AM 41.0130 -74.9125 112° Southeast 463 533 23,000  Level FlightAware ADS-B (KWWD)
04:28AM 40.9920 -74.8170 106° East 467 537 23,000  Level FlightAware ADS-B (KWWD)
04:28AM 40.9942 -74.8303 283° West 468 539 23,000  Level FlightAware ADS-B
04:28AM 40.9846 -74.7650 101° East 472 543 23,000  Level FlightAware ADS-B
04:29AM 40.9751 -74.6751 98° East 471 542 23,000  Level FlightAware ADS-B
04:29AM 40.9721 -74.6470 98° East 471 542 23,000  Level FlightAware ADS-B (KWWD)
04:29AM 40.9658 -74.5897 98° East 471 542 23,000  Level FlightAware ADS-B
04:29AM 40.9625 -74.5597 98° East 469 540 23,000  Level FlightAware ADS-B (KWWD)
04:30AM 40.9526 -74.4711 98° East 468 539 23,000 -480 Level FlightAware ADS-B
04:30AM 40.9405 -74.3627 98° East 464 534 22,500 -1,200 Descending FlightAware ADS-B (KWWD)
04:31AM 40.9338 -74.3109 100° East 461 531 21,900 -1,560 Descending FlightAware ADS-B
04:31AM 40.9101 -74.2304 111° Southeast 452 520 21,200 -1,920 Descending FlightAware ADS-B (KWWD)
04:32AM 40.8945 -74.1846 114° Southeast 450 518 20,300 -2,580 Descending FlightAware ADS-B
04:32AM 40.8751 -74.1281 114° Southeast 454 522 19,500 -2,460 Descending FlightAware ADS-B
04:32AM 40.8756 -74.1293 297° West 447 514 19,400 -3,900 Descending FlightAware ADS-B
04:32AM 40.8499 -74.0542 114° Southeast 444 511 17,500 -4,320 Descending FlightAware ADS-B
04:33AM 40.8422 -74.0321 115° Southeast 442 509 16,700 -5,040 Descending FlightAware ADS-B (KWWD)
04:33AM 40.8235 -73.9790 115° Southeast 439 505 15,000 -4,500 Descending FlightAware ADS-B
04:33AM 40.8082 -73.9357 115° Southeast 433 498 13,700 -4,320 Descending FlightAware ADS-B (KWWD)
04:34AM 40.7907 -73.8865 115° Southeast 420 483 12,200 -3,240 Descending FlightAware ADS-B (KWWD)
04:34AM 40.7695 -73.8286 116° Southeast 430 495 11,200 -1,680 Descending FlightAware ADS-B
04:35AM 40.7290 -73.7160 115° Southeast 332 382 9,900 -1,380 Descending FlightAware
04:36AM 40.7100 -73.6630 115° Southeast 312 359 9,200 -1,800 Descending FlightAware
04:36AM 40.6900 -73.6080 116° Southeast 306 352 8,100 -2,160 Descending FlightAware
04:37AM 40.6580 -73.5740 141° Southeast 278 320 7,000 -1,860 Descending FlightAware
04:37AM 40.6050 -73.5930 195° South 261 300 5,700 -960 Descending FlightAware
04:38AM 40.5560 -73.6210 203° Southwest 269 310 5,600 -300 Descending FlightAware
04:39AM 40.5040 -73.6510 204° Southwest 259 298 5,300 -1,260 Descending FlightAware
04:39AM 40.4650 -73.6760 206° Southwest 262 302 3,900 -2,100 Descending FlightAware
04:40AM 40.4240 -73.7020 206° Southwest 267 307 2,800 -1,200 Descending FlightAware
04:41AM 40.3880 -73.7260 207° Southwest 271 312 2,600 -180 Descending FlightAware
04:41AM 40.3510 -73.7610 216° Southwest 241 277 2,600  Level FlightAware
04:42AM 40.3600 -73.8090 284° West 225 259 2,600 -300 Level FlightAware
04:43AM 40.4010 -73.8290 340° North 219 252 2,200 -780 Descending FlightAware
04:43AM 40.4370 -73.8410 346° North 220 253 1,600 -480 Descending FlightAware
04:44AM 40.4803 -73.8568 344° North 195 224 1,600 -240 Level FlightAware ADS-B
04:44AM 40.4939 -73.8618 344° North 191 220 1,400 -960 Descending FlightAware ADS-B
04:45AM 40.5085 -73.8674 344° North 189 217 1,100 -840 Descending FlightAware ADS-B
04:45AM 40.5133 -73.8691 345° North 191 220 1,100  Level FlightAware ADS-B
04:45AM 40.5161 -73.8696 352° North 190 219 1,100  Level FlightAware ADS-B
04:45AM 40.5204 -73.8691 North 188 216 1,100  Level FlightAware ADS-B
04:46AM 40.5540 -73.8380 35° Northeast 179 206 1,100 -300 Level FlightAware
04:46AM 40.5760 -73.8210 30° Northeast 148 170 700 -660 Descending FlightAware
04:47AM 40.5960 -73.8060 30° Northeast 117 135 300 -600 Descending FlightAware
04:47AM 40.6110 -73.7940 31° Northeast 116 133 -600 Descending FlightAware
04:48AM 40.6260 -73.7830 29° Northeast 115 132  Level FlightAware
04:57AM 40.6460 -73.7720 90° East  Level FlightAware
05:02AM 40.6460 -73.7730 270° West  Level FlightAware
05:02AM 40.6460 -73.7720 90° East  Level FlightAware
05:04AM 40.6460 -73.7720 90° East  Level FlightAware
05:08AM 40.6460 -73.7730 270° West  Level FlightAware